Time;durP1;ratioP1;P1;durP2;ratioP2;P2;SDS_P1;SDS_P2;PMS_P1;PMS_P2;Temp;Humidity;BMP_temperature;BMP_pressure;BME280_temperature;BME280_humidity;BME280_pressure;Samples;Min_cycle;Max_cycle;Signal;HPM_P1;HPM_P2
2021/05/05 00:00:30;;;;;;;2.07;1.50;;;;;;;5.77;96.96;96874.34;5055142;28;20199;-70
2021/05/05 00:02:58;;;;;;;3.13;1.20;;;;;;;5.74;97.33;96879.13;5061687;28;20226;-70
2021/05/05 00:05:25;;;;;;;1.13;1.10;;;;;;;5.78;98.77;96880.44;5060152;28;20643;-68
2021/05/05 00:07:52;;;;;;;1.23;1.13;;;;;;;5.79;98.29;96882.88;5063767;28;20211;-69
2021/05/05 00:10:19;;;;;;;3.60;1.20;;;;;;;5.72;98.67;96870.56;5061455;28;20203;-70
2021/05/05 00:12:46;;;;;;;1.77;1.30;;;;;;;5.69;100.00;96884.84;5063219;28;20226;-69
2021/05/05 00:15:16;;;;;;;1.17;1.17;;;;;;;5.70;99.14;96883.84;5063584;28;20227;-68
2021/05/05 00:17:43;;;;;;;2.00;1.77;;;;;;;5.69;98.99;96876.16;5065939;28;20217;-68
2021/05/05 00:20:12;;;;;;;2.77;1.53;;;;;;;5.69;98.75;96881.41;5064155;28;20203;-70
2021/05/05 00:22:40;;;;;;;2.23;1.30;;;;;;;5.71;99.38;96869.72;5065678;28;20229;-69
2021/05/05 00:25:08;;;;;;;1.43;1.07;;;;;;;5.63;100.00;96865.25;5065450;28;20357;-69
2021/05/05 00:27:36;;;;;;;1.60;1.50;;;;;;;5.56;100.00;96868.72;5065280;28;20203;-69
2021/05/05 00:30:05;;;;;;;1.13;1.10;;;;;;;5.55;100.00;96865.25;5065114;28;20700;-70
2021/05/05 00:32:32;;;;;;;1.43;1.27;;;;;;;5.52;100.00;96864.75;5063661;28;20238;-70
2021/05/05 00:34:59;;;;;;;3.60;1.50;;;;;;;5.49;100.00;96860.63;5064499;28;20245;-69
2021/05/05 00:37:26;;;;;;;1.07;1.07;;;;;;;5.43;100.00;96853.41;5061775;28;20242;-71
2021/05/05 00:39:55;;;;;;;1.10;1.10;;;;;;;5.39;100.00;96852.06;5063857;28;20207;-69
2021/05/05 00:42:22;;;;;;;1.37;1.27;;;;;;;5.50;100.00;96852.59;5063260;28;20233;-70
2021/05/05 00:44:49;;;;;;;1.97;1.17;;;;;;;5.44;100.00;96849.78;5063536;28;20579;-69
2021/05/05 00:47:17;;;;;;;1.63;1.53;;;;;;;5.36;100.00;96842.69;5062420;28;20202;-70
2021/05/05 00:49:46;;;;;;;3.93;1.47;;;;;;;5.39;100.00;96846.81;5063954;28;20207;-70
2021/05/05 00:52:13;;;;;;;1.70;1.60;;;;;;;5.29;100.00;96846.94;5064062;28;20328;-70
2021/05/05 00:54:40;;;;;;;1.23;1.13;;;;;;;5.41;100.00;96831.72;5066051;28;20775;-71
2021/05/05 00:57:07;;;;;;;2.17;1.60;;;;;;;5.39;100.00;96839.75;5067376;28;20202;-71
2021/05/05 00:59:34;;;;;;;1.97;1.60;;;;;;;5.37;100.00;96833.81;5064772;28;20213;-71
2021/05/05 01:02:01;;;;;;;1.67;1.57;;;;;;;5.27;100.00;96833.16;5061961;28;20205;-71
2021/05/05 01:04:28;;;;;;;1.23;1.10;;;;;;;5.33;100.00;96835.13;5061810;28;20318;-71
2021/05/05 01:06:56;;;;;;;1.67;1.60;;;;;;;5.28;100.00;96822.47;5064806;28;20229;-71
2021/05/05 01:09:23;;;;;;;1.33;1.23;;;;;;;5.30;100.00;96819.69;5063144;28;20738;-70
2021/05/05 01:11:50;;;;;;;2.00;1.40;;;;;;;5.26;100.00;96824.44;5062664;28;20210;-71
2021/05/05 01:14:17;;;;;;;3.60;1.50;;;;;;;5.21;100.00;96817.03;5064104;28;20241;-71
2021/05/05 01:16:44;;;;;;;1.93;1.47;;;;;;;5.25;100.00;96819.34;5060040;28;20199;-71
2021/05/05 01:19:11;;;;;;;1.90;1.77;;;;;;;5.20;100.00;96804.06;5063313;28;20210;-71
2021/05/05 01:21:39;;;;;;;2.43;1.63;;;;;;;5.26;100.00;96807.84;5062130;28;20199;-70
2021/05/05 01:24:07;;;;;;;4.27;1.73;;;;;;;5.15;100.00;96806.34;5067216;28;20591;-70
2021/05/05 01:26:34;;;;;;;2.10;1.97;;;;;;;5.17;100.00;96820.13;5063991;28;20764;-69
2021/05/05 01:29:01;;;;;;;1.43;1.33;;;;;;;5.10;100.00;96806.00;5061614;28;20293;-71
2021/05/05 01:31:28;;;;;;;1.83;1.60;;;;;;;5.15;100.00;96796.66;5063181;28;20215;-70
2021/05/05 01:33:56;;;;;;;2.93;1.57;;;;;;;5.08;100.00;96814.03;5060803;28;20234;-70
2021/05/05 01:36:24;;;;;;;3.30;1.83;;;;;;;5.09;100.00;96812.22;5063182;28;20207;-70
2021/05/05 01:38:52;;;;;;;6.83;1.70;;;;;;;5.10;100.00;96814.69;5063499;28;20211;-70
2021/05/05 01:41:20;;;;;;;2.60;1.50;;;;;;;5.12;100.00;96812.75;5063854;28;20203;-70
2021/05/05 01:43:47;;;;;;;2.83;2.63;;;;;;;5.06;100.00;96813.34;5063229;28;20226;-69
2021/05/05 01:46:16;;;;;;;1.60;1.50;;;;;;;4.99;100.00;96828.94;5062412;28;20616;-70
2021/05/05 01:48:43;;;;;;;4.00;1.77;;;;;;;5.03;100.00;96824.19;5060164;28;20230;-72
2021/05/05 01:51:10;;;;;;;2.83;1.93;;;;;;;5.16;100.00;96816.69;5063249;28;20214;-71
2021/05/05 01:53:37;;;;;;;4.23;2.13;;;;;;;5.13;100.00;96817.03;5062009;28;20231;-70
2021/05/05 01:56:05;;;;;;;1.93;1.70;;;;;;;5.06;100.00;96813.34;5058939;28;20252;-70
2021/05/05 01:58:33;;;;;;;2.20;2.10;;;;;;;5.10;100.00;96809.44;5058975;28;20222;-70
2021/05/05 02:01:00;;;;;;;3.80;2.10;;;;;;;5.05;100.00;96801.22;5061104;28;20231;-70
2021/05/05 02:03:27;;;;;;;3.03;1.80;;;;;;;5.11;100.00;96803.19;5061711;28;20229;-70
2021/05/05 02:05:54;;;;;;;3.03;1.80;;;;;;;5.09;100.00;96793.84;5062984;28;20596;-70
2021/05/05 02:08:21;;;;;;;3.03;1.80;;;;;;;5.06;100.00;96781.84;5060027;28;20575;-69
2021/05/05 02:10:49;;;;;;;2.97;1.90;;;;;;;5.09;100.00;96786.78;5062157;28;20207;-70
2021/05/05 02:13:17;;;;;;;4.57;1.93;;;;;;;5.07;100.00;96773.81;5061644;28;20732;-70
2021/05/05 02:15:44;;;;;;;2.40;1.97;;;;;;;5.11;100.00;96769.06;5062421;28;20203;-70
2021/05/05 02:18:11;;;;;;;3.67;2.10;;;;;;;4.98;100.00;96773.94;5062172;28;20199;-70
2021/05/05 02:20:38;;;;;;;1.77;1.67;;;;;;;5.07;100.00;96758.06;5061155;28;20203;-70
2021/05/05 02:23:06;;;;;;;2.33;1.80;;;;;;;4.99;100.00;96758.03;5062825;28;20226;-70
2021/05/05 02:25:33;;;;;;;3.80;2.00;;;;;;;4.99;100.00;96759.84;5061972;28;20207;-71
2021/05/05 02:28:00;;;;;;;4.27;1.80;;;;;;;5.05;100.00;96764.44;5062420;28;20408;-69
2021/05/05 02:30:27;;;;;;;2.17;1.80;;;;;;;4.96;100.00;96747.88;5059143;28;20586;-71
2021/05/05 02:32:54;;;;;;;4.60;1.97;;;;;;;5.04;100.00;96736.53;5062272;28;20229;-70
2021/05/05 02:35:21;;;;;;;6.43;2.33;;;;;;;4.93;100.00;96728.00;5060296;28;20252;-70
2021/05/05 02:37:50;;;;;;;5.47;2.23;;;;;;;4.93;100.00;96712.22;5059668;28;20469;-70
2021/05/05 02:40:18;;;;;;;5.17;2.10;;;;;;;4.93;100.00;96729.81;5061231;28;20199;-70
2021/05/05 02:42:45;;;;;;;3.97;2.37;;;;;;;4.96;100.00;96718.97;5058295;28;20227;-70
2021/05/05 02:45:12;;;;;;;3.93;2.50;;;;;;;4.95;100.00;96717.34;5061384;28;20202;-70
2021/05/05 02:47:40;;;;;;;4.20;2.33;;;;;;;4.90;100.00;96722.22;5053337;28;20683;-70
2021/05/05 02:50:08;;;;;;;5.50;2.47;;;;;;;4.86;100.00;96720.91;5052214;28;20204;-71
2021/05/05 02:52:35;;;;;;;2.30;2.10;;;;;;;4.81;100.00;96731.06;5052778;28;20227;-71
2021/05/05 02:55:03;;;;;;;3.70;2.10;;;;;;;4.83;100.00;96744.84;5051075;28;20261;-70
2021/05/05 02:57:30;;;;;;;6.93;2.33;;;;;;;4.89;100.00;96754.72;5059945;28;20214;-70
2021/05/05 02:59:57;;;;;;;2.70;2.57;;;;;;;4.78;100.00;96756.63;5053899;28;20209;-70
2021/05/05 03:02:24;;;;;;;2.23;2.10;;;;;;;4.88;100.00;96761.78;5061089;28;20228;-70
2021/05/05 03:04:53;;;;;;;3.97;2.03;;;;;;;4.87;100.00;96768.00;5059760;28;20191;-71
2021/05/05 03:07:20;;;;;;;3.20;2.80;;;;;;;4.79;100.00;96770.59;5061541;28;20282;-71
2021/05/05 03:09:47;;;;;;;2.87;2.27;;;;;;;4.77;100.00;96769.94;5059574;28;20198;-71
2021/05/05 03:12:14;;;;;;;5.03;2.53;;;;;;;4.78;100.00;96772.38;5058598;28;20678;-71
2021/05/05 03:14:41;;;;;;;2.63;2.43;;;;;;;4.77;100.00;96769.94;5058814;28;20234;-71
2021/05/05 03:17:08;;;;;;;2.40;2.20;;;;;;;4.74;100.00;96765.81;5055685;28;20203;-71
2021/05/05 03:19:35;;;;;;;3.00;1.97;;;;;;;4.66;100.00;96770.19;5056735;28;20255;-70
2021/05/05 03:22:03;;;;;;;6.50;2.20;;;;;;;4.73;100.00;96760.72;5054167;28;20203;-70
2021/05/05 03:24:30;;;;;;;4.20;2.47;;;;;;;4.66;100.00;96759.69;5059236;28;20202;-69
2021/05/05 03:26:57;;;;;;;2.73;2.00;;;;;;;4.61;100.00;96755.75;5055008;28;20198;-70
2021/05/05 03:29:24;;;;;;;4.03;2.33;;;;;;;4.64;100.00;96758.06;5060146;28;20206;-70
2021/05/05 03:31:52;;;;;;;2.37;2.17;;;;;;;4.62;100.00;96753.97;5061261;28;20218;-71
2021/05/05 03:34:19;;;;;;;2.43;2.23;;;;;;;4.60;100.00;96758.53;5060401;28;20248;-70
2021/05/05 03:36:46;;;;;;;2.03;1.93;;;;;;;4.63;100.00;96771.34;5060900;28;20717;-70
2021/05/05 03:39:14;;;;;;;3.10;2.30;;;;;;;4.62;100.00;96772.31;5057338;28;20218;-70
2021/05/05 03:41:41;;;;;;;2.20;2.10;;;;;;;4.62;100.00;96780.19;5058847;28;20202;-70
2021/05/05 03:44:09;;;;;;;2.90;2.60;;;;;;;4.54;100.00;96778.34;5062082;28;20230;-71
2021/05/05 03:46:38;;;;;;;2.93;2.37;;;;;;;4.54;100.00;96782.75;5059431;28;20693;-70
2021/05/05 03:49:06;;;;;;;5.87;2.90;;;;;;;4.62;100.00;96782.81;5064456;28;20579;-70
2021/05/05 03:51:33;;;;;;;2.70;2.50;;;;;;;4.60;100.00;96774.28;5058796;28;20583;-69
2021/05/05 03:54:00;;;;;;;3.60;2.27;;;;;;;4.65;100.00;96766.75;5058706;28;20317;-70
2021/05/05 03:56:28;;;;;;;4.63;2.37;;;;;;;4.57;100.00;96740.50;5061922;28;20207;-71
2021/05/05 03:58:55;;;;;;;2.93;2.40;;;;;;;4.71;100.00;96741.66;5062254;28;21141;-70
2021/05/05 04:01:22;;;;;;;4.37;2.80;;;;;;;4.61;100.00;96747.88;5060405;28;20203;-71
2021/05/05 04:03:49;;;;;;;3.20;2.03;;;;;;;4.65;100.00;96761.50;5063223;28;20532;-71
2021/05/05 04:06:16;;;;;;;3.80;1.83;;;;;;;4.51;100.00;96764.72;5056079;28;20203;-71
2021/05/05 04:08:43;;;;;;;6.13;2.57;;;;;;;4.50;100.00;96777.00;5061175;28;20217;-71
2021/05/05 04:11:10;;;;;;;2.17;1.97;;;;;;;4.46;100.00;96760.75;5063974;28;20202;-71
2021/05/05 04:13:38;;;;;;;4.30;2.97;;;;;;;4.63;100.00;96761.66;5065104;28;20246;-63
2021/05/05 04:16:23;;;;;;;3.23;2.33;;;;;;;4.63;100.00;96769.53;5064571;28;20210;-64
2021/05/05 04:19:08;;;;;;;3.63;3.03;;;;;;;4.73;100.00;96752.84;5060207;28;20257;-64
2021/05/05 04:21:53;;;;;;;2.53;2.30;;;;;;;4.72;100.00;96753.81;5064101;28;20532;-64
2021/05/05 04:24:39;;;;;;;2.70;2.10;;;;;;;4.76;100.00;96757.81;5061231;28;20252;-64
2021/05/05 04:27:06;;;;;;;2.70;2.40;;;;;;;4.66;100.00;96771.03;5062325;28;20207;-64
2021/05/05 04:29:34;;;;;;;2.07;1.80;;;;;;;4.58;100.00;96777.06;5062584;28;20207;-64
2021/05/05 04:32:01;;;;;;;2.90;2.37;;;;;;;4.53;100.00;96776.69;5058952;28;20510;-63
2021/05/05 04:34:28;;;;;;;3.90;3.13;;;;;;;4.56;100.00;96773.75;5064099;28;20223;-64
2021/05/05 04:36:55;;;;;;;5.00;2.33;;;;;;;4.65;100.00;96779.88;5061162;28;20234;-64
2021/05/05 04:39:24;;;;;;;2.30;1.73;;;;;;;4.66;100.00;96784.16;5062658;28;20229;-71
2021/05/05 04:41:51;;;;;;;3.97;2.37;;;;;;;4.68;100.00;96787.44;5057250;28;20211;-70
2021/05/05 04:44:18;;;;;;;2.20;2.00;;;;;;;4.66;100.00;96781.53;5058451;28;21585;-71
2021/05/05 04:46:46;;;;;;;2.30;2.10;;;;;;;4.72;100.00;96780.06;5059968;28;20215;-71
2021/05/05 04:49:13;;;;;;;3.17;2.23;;;;;;;4.71;100.00;96762.66;5060769;28;20625;-71
2021/05/05 04:51:40;;;;;;;2.60;2.50;;;;;;;4.64;100.00;96765.94;5060175;28;20215;-70
2021/05/05 04:54:08;;;;;;;4.87;2.80;;;;;;;4.71;100.00;96754.78;5056816;28;20634;-70
2021/05/05 04:56:35;;;;;;;4.50;2.00;;;;;;;4.77;100.00;96751.56;5061095;28;20204;-71
2021/05/05 04:59:02;;;;;;;2.10;2.00;;;;;;;4.77;100.00;96756.81;5059688;28;20450;-70
2021/05/05 05:01:29;;;;;;;3.67;3.27;;;;;;;4.76;100.00;96744.69;5064539;28;20199;-71
2021/05/05 05:03:57;;;;;;;3.80;3.03;;;;;;;4.87;100.00;96747.00;5063531;28;20233;-70
2021/05/05 05:06:24;;;;;;;2.97;1.83;;;;;;;4.88;100.00;96759.16;5060374;28;20206;-70
2021/05/05 05:08:51;;;;;;;6.10;2.70;;;;;;;4.90;100.00;96783.44;5062489;28;20622;-71
2021/05/05 05:11:18;;;;;;;3.13;2.17;;;;;;;4.78;100.00;96793.38;5061955;28;20202;-70
2021/05/05 05:13:45;;;;;;;3.50;2.47;;;;;;;4.77;100.00;96783.06;5058459;28;20226;-70
2021/05/05 05:16:12;;;;;;;3.17;2.20;;;;;;;4.84;100.00;96791.13;5060366;28;20203;-70
2021/05/05 05:18:39;;;;;;;2.30;2.10;;;;;;;4.89;100.00;96789.66;5063942;28;20207;-69
2021/05/05 05:21:07;;;;;;;3.37;2.50;;;;;;;5.02;100.00;96780.53;5063186;28;20207;-70
2021/05/05 05:23:35;;;;;;;2.67;2.43;;;;;;;5.20;100.00;96778.63;5063877;28;20231;-70
2021/05/05 05:26:02;;;;;;;3.10;2.27;;;;;;;5.32;100.00;96786.19;5062536;28;20203;-69
2021/05/05 05:28:29;;;;;;;4.83;2.23;;;;;;;5.35;100.00;96796.38;5059648;28;20260;-69
2021/05/05 05:30:56;;;;;;;2.37;2.17;;;;;;;5.22;100.00;96815.22;5063069;28;20199;-70
2021/05/05 05:33:25;;;;;;;3.20;2.63;;;;;;;5.17;100.00;96820.13;5061967;28;20231;-69
2021/05/05 05:35:52;;;;;;;2.23;2.03;;;;;;;5.22;100.00;96817.84;5055289;28;20321;-69
2021/05/05 05:38:20;;;;;;;3.53;2.93;;;;;;;5.22;100.00;96823.09;5059655;28;20215;-70
2021/05/05 05:40:47;;;;;;;3.23;2.37;;;;;;;5.16;100.00;96826.38;5059311;28;20512;-69
2021/05/05 05:43:14;;;;;;;3.93;2.77;;;;;;;4.97;100.00;96825.66;5060204;28;20218;-70
2021/05/05 05:45:41;;;;;;;3.43;3.13;;;;;;;5.17;100.00;96830.63;5058749;28;20207;-70
2021/05/05 05:48:09;;;;;;;3.73;3.00;;;;;;;5.18;100.00;96827.88;5059635;28;20210;-69
2021/05/05 05:50:36;;;;;;;4.50;2.70;;;;;;;5.04;100.00;96845.03;5061675;28;20942;-69
2021/05/05 05:53:04;;;;;;;3.40;2.83;;;;;;;4.99;100.00;96839.44;5056993;28;20222;-70
2021/05/05 05:55:33;;;;;;;4.10;3.50;;;;;;;5.08;100.00;96837.66;5056295;28;20230;-70
2021/05/05 05:58:03;;;;;;;3.47;2.90;;;;;;;5.27;100.00;96841.84;5058152;28;20199;-69
2021/05/05 06:00:30;;;;;;;3.33;3.03;;;;;;;5.32;100.00;96841.38;5060118;28;20263;-69
2021/05/05 06:02:58;;;;;;;3.10;2.90;;;;;;;5.44;100.00;96840.09;5060129;28;20580;-69
2021/05/05 06:05:25;;;;;;;4.10;3.70;;;;;;;5.50;100.00;96842.09;5059803;28;20199;-69
2021/05/05 06:07:52;;;;;;;5.63;4.33;;;;;;;5.61;100.00;96834.88;5059564;28;20565;-70
2021/05/05 06:10:19;;;;;;;4.07;3.07;;;;;;;5.46;100.00;96845.19;5060029;28;20225;-70
2021/05/05 06:12:47;;;;;;;4.93;3.07;;;;;;;5.54;100.00;96862.78;5061913;28;20227;-70
2021/05/05 06:15:14;;;;;;;3.20;2.90;;;;;;;5.65;100.00;96867.75;5059000;28;20234;-70
2021/05/05 06:17:41;;;;;;;7.07;2.97;;;;;;;5.77;100.00;96863.00;5062125;28;20206;-69
2021/05/05 06:20:11;;;;;;;3.30;3.00;;;;;;;5.82;100.00;96863.34;5060311;28;20214;-69
2021/05/05 06:22:38;;;;;;;3.20;3.00;;;;;;;6.07;100.00;96866.06;5063230;28;20233;-70
2021/05/05 06:25:06;;;;;;;3.20;2.90;;;;;;;5.93;100.00;96867.47;5058302;28;20739;-69
2021/05/05 06:27:34;;;;;;;3.23;2.80;;;;;;;5.79;100.00;96866.31;5060324;28;20333;-70
2021/05/05 06:30:02;;;;;;;3.40;3.13;;;;;;;6.00;100.00;96878.16;5059379;28;20214;-69
2021/05/05 06:32:29;;;;;;;3.43;3.13;;;;;;;5.85;100.00;96885.84;5056459;28;20731;-69
2021/05/05 06:34:56;;;;;;;3.17;2.77;;;;;;;6.02;100.00;96882.31;5061046;28;20250;-70
2021/05/05 06:37:24;;;;;;;3.20;2.83;;;;;;;6.15;100.00;96876.56;5056993;28;20221;-70
2021/05/05 06:39:52;;;;;;;3.37;2.70;;;;;;;5.98;100.00;96885.38;5060845;28;20214;-69
2021/05/05 06:42:19;;;;;;;3.37;3.07;;;;;;;5.82;100.00;96876.50;5061123;28;20203;-70
2021/05/05 06:44:46;;;;;;;4.07;3.77;;;;;;;5.88;100.00;96875.84;5059337;28;20666;-69
2021/05/05 06:47:15;;;;;;;4.13;3.70;;;;;;;5.86;100.00;96869.09;5059703;28;20446;-69
2021/05/05 06:49:42;;;;;;;3.40;3.03;;;;;;;6.00;100.00;96872.88;5060050;28;20606;-70
2021/05/05 06:52:09;;;;;;;2.70;2.50;;;;;;;6.11;100.00;96869.16;5061171;28;20203;-68
2021/05/05 06:54:37;;;;;;;3.57;3.37;;;;;;;6.00;100.00;96880.78;5059083;28;20259;-70
2021/05/05 06:57:05;;;;;;;3.07;2.87;;;;;;;5.82;100.00;96886.19;5057540;28;20211;-69
2021/05/05 06:59:32;;;;;;;3.10;2.80;;;;;;;6.00;100.00;96884.25;5057169;28;20212;-69
2021/05/05 07:01:59;;;;;;;5.23;4.93;;;;;;;5.93;100.00;96891.97;5052699;28;20213;-68
2021/05/05 07:04:27;;;;;;;3.30;3.10;;;;;;;6.16;100.00;96891.38;5056353;28;20326;-69
2021/05/05 07:06:54;;;;;;;4.07;3.40;;;;;;;6.28;100.00;96888.41;5061285;28;20203;-69
2021/05/05 07:09:33;;;;;;;3.57;3.27;;;;;;;6.17;100.00;96884.28;5058210;28;20229;-69
2021/05/05 07:12:00;;;;;;;9.07;6.27;;;;;;;6.32;100.00;96897.63;5056671;28;20349;-69
2021/05/05 07:14:27;;;;;;;4.10;3.63;;;;;;;6.02;100.00;96892.84;5060914;28;20223;-68
2021/05/05 07:16:54;;;;;;;6.13;4.33;;;;;;;5.85;100.00;96891.94;5058335;28;20659;-69
2021/05/05 07:19:21;;;;;;;4.53;3.93;;;;;;;5.71;100.00;96903.91;5059245;28;20199;-69
2021/05/05 07:21:49;;;;;;;3.60;3.40;;;;;;;5.64;100.00;96908.16;5062045;28;20207;-70
2021/05/05 07:24:16;;;;;;;4.97;3.90;;;;;;;5.74;100.00;96900.16;5059223;28;20229;-69
2021/05/05 07:26:43;;;;;;;7.10;5.47;;;;;;;5.80;100.00;96897.66;5059537;28;20208;-69
2021/05/05 07:29:10;;;;;;;5.50;5.00;;;;;;;5.97;100.00;96892.47;5062208;28;20576;-69
2021/05/05 07:31:37;;;;;;;4.67;4.27;;;;;;;5.91;100.00;96901.81;5059483;28;20203;-70
2021/05/05 07:34:05;;;;;;;7.30;5.63;;;;;;;5.92;100.00;96911.34;5058555;28;20683;-69
2021/05/05 07:36:32;;;;;;;4.03;3.50;;;;;;;5.88;100.00;96915.28;5058999;28;20256;-68
2021/05/05 07:45:08;;;;;;;6.60;5.20;;;;;;;6.36;100.00;96925.25;5061725;28;20302;-70
2021/05/05 07:47:36;;;;;;;5.03;3.90;;;;;;;6.25;100.00;96923.78;5056971;28;20310;-71
2021/05/05 07:50:05;;;;;;;7.43;6.27;;;;;;;6.34;100.00;96919.31;5060396;28;20207;-70
2021/05/05 07:52:32;;;;;;;4.87;4.57;;;;;;;6.54;99.70;96919.81;5056978;28;20238;-70
2021/05/05 07:55:01;;;;;;;5.80;3.97;;;;;;;6.36;92.77;96928.72;5056931;28;20269;-70
2021/05/05 07:57:27;;;;;;;9.57;5.17;;;;;;;6.54;92.59;96922.47;5060127;28;20481;-69
2021/05/05 07:59:53;;;;;;;5.53;5.03;;;;;;;6.55;88.47;96925.94;5058458;28;20211;-71
2021/05/05 08:02:20;;;;;;;5.33;3.30;;;;;;;6.40;89.49;96923.13;5060748;28;20203;-69
2021/05/05 08:04:49;;;;;;;5.27;3.90;;;;;;;6.50;82.75;96923.78;5060313;28;20223;-71
2021/05/05 08:07:18;;;;;;;7.53;5.10;;;;;;;6.78;82.38;96918.19;5059923;28;20209;-71
2021/05/05 08:09:51;;;;;;;6.60;4.30;;;;;;;7.08;80.78;96921.91;5056628;28;20350;-71
2021/05/05 08:12:19;;;;;;;5.57;4.20;;;;;;;7.16;75.35;96920.22;5061223;28;20675;-69
2021/05/05 08:14:46;;;;;;;19.87;11.83;;;;;;;7.43;77.58;96919.03;5057980;28;20241;-71
2021/05/05 08:17:14;;;;;;;18.67;12.53;;;;;;;7.77;76.30;96917.88;5059517;28;20215;-70
2021/05/05 08:19:43;;;;;;;4.97;3.20;;;;;;;7.75;70.74;96913.75;5058944;28;20290;-71
2021/05/05 08:22:10;;;;;;;10.53;6.67;;;;;;;7.88;70.77;96916.66;5060676;28;20226;-71
2021/05/05 08:24:37;;;;;;;6.03;3.37;;;;;;;7.75;66.75;96919.84;5061734;28;20500;-71
2021/05/05 08:27:05;;;;;;;4.90;3.67;;;;;;;7.49;69.85;96923.59;5051409;28;20203;-71
2021/05/05 08:29:33;;;;;;;6.43;4.90;;;;;;;7.39;70.57;96926.44;5064012;28;20690;-70
2021/05/05 08:32:01;;;;;;;13.93;8.27;;;;;;;7.72;71.76;96924.66;5061347;28;20663;-70
2021/05/05 08:34:28;;;;;;;8.63;4.93;;;;;;;7.91;69.70;96932.13;5063340;28;20310;-71
2021/05/05 08:36:56;;;;;;;9.67;5.47;;;;;;;8.26;68.75;96913.31;5064598;28;20203;-68
2021/05/05 08:39:23;;;;;;;3.30;2.87;;;;;;;8.51;62.61;96982.63;5064190;28;20215;-68
2021/05/05 08:41:52;;;;;;;2.17;1.93;;;;;;;8.48;58.27;96935.41;5065540;28;20766;-68
2021/05/05 08:44:20;;;;;;;3.60;2.70;;;;;;;8.79;56.50;96896.72;5064531;28;20246;-69
2021/05/05 08:46:49;;;;;;;5.43;3.77;;;;;;;8.95;55.96;96941.50;5065478;28;20203;-69
2021/05/05 08:49:17;;;;;;;3.10;2.80;;;;;;;8.97;52.76;96918.34;5063417;28;20906;-68
2021/05/05 08:51:45;;;;;;;2.80;2.60;;;;;;;8.71;52.56;96921.38;5059333;28;20226;-68
2021/05/05 08:54:12;;;;;;;6.10;4.30;;;;;;;8.76;57.28;96912.94;5060106;28;20702;-69
2021/05/05 08:56:40;;;;;;;9.97;6.27;;;;;;;8.64;57.84;96917.81;5064057;28;20246;-69
2021/05/05 08:59:08;;;;;;;2.17;2.07;;;;;;;8.23;58.25;96929.50;5060438;28;20202;-69
2021/05/05 09:01:36;;;;;;;9.37;5.97;;;;;;;8.16;60.01;96931.19;5060006;28;20207;-69
2021/05/05 09:04:05;;;;;;;9.87;6.23;;;;;;;8.24;56.33;96933.78;5064401;28;20694;-68
2021/05/05 09:06:47;;;;;;;4.47;2.47;;;;;;;8.13;54.44;96936.78;5059088;28;20203;-69
2021/05/05 09:09:36;;;;;;;3.43;1.90;;;;;;;8.39;49.85;96942.56;5063872;28;20203;-69
2021/05/05 09:12:16;;;;;;;5.43;3.30;;;;;;;8.80;48.73;96919.50;5062162;28;20324;-69
2021/05/05 09:14:55;;;;;;;3.37;2.20;;;;;;;9.06;48.32;96936.78;5062058;28;20603;-70
2021/05/05 09:17:23;;;;;;;2.37;1.70;;;;;;;9.10;45.59;96940.69;5064901;28;20230;-70
2021/05/05 09:19:57;;;;;;;3.50;3.23;;;;;;;9.10;45.68;96932.75;5060740;28;20218;-68
2021/05/05 09:22:35;;;;;;;4.70;2.63;;;;;;;8.92;45.97;96933.09;5062253;28;20238;-69
2021/05/05 09:25:02;;;;;;;3.63;2.47;;;;;;;9.14;46.40;96939.31;5060574;28;20198;-69
2021/05/05 09:27:33;;;;;;;5.33;2.53;;;;;;;8.98;45.88;96957.00;5059130;28;20478;-69
2021/05/05 09:30:01;;;;;;;3.30;2.17;;;;;;;9.09;45.88;96944.34;5060418;28;20210;-69
2021/05/05 09:32:28;;;;;;;4.23;2.03;;;;;;;9.14;45.01;96943.81;5061987;28;20229;-69
2021/05/05 09:34:58;;;;;;;2.87;1.37;;;;;;;9.16;45.57;96934.69;5064214;28;20249;-70
2021/05/05 09:37:26;;;;;;;4.17;2.07;;;;;;;9.44;44.92;96935.88;5059294;28;20203;-69
2021/05/05 09:40:00;;;;;;;5.83;2.03;;;;;;;9.14;46.29;96960.47;5063108;28;20199;-69
2021/05/05 09:42:29;;;;;;;4.27;2.27;;;;;;;9.47;46.48;96954.00;5063736;28;20229;-69
2021/05/05 09:44:58;;;;;;;5.60;2.53;;;;;;;9.56;43.96;96952.94;5064155;28;20202;-68
2021/05/05 09:47:25;;;;;;;2.40;2.20;;;;;;;9.41;44.48;96955.56;5062661;28;20270;-69
2021/05/05 09:49:53;;;;;;;2.50;1.37;;;;;;;9.44;44.00;96954.38;5061342;28;20642;-68
2021/05/05 09:52:25;;;;;;;1.50;1.40;;;;;;;9.71;43.62;96942.34;5063643;28;20237;-68
2021/05/05 09:54:55;;;;;;;3.83;1.93;;;;;;;9.79;45.69;96957.28;5063682;28;20234;-69
2021/05/05 09:57:23;;;;;;;4.53;3.13;;;;;;;9.69;44.00;96963.69;5062723;28;20207;-69
2021/05/05 10:00:02;;;;;;;4.27;2.97;;;;;;;9.41;42.02;96961.66;5063914;28;20203;-69
2021/05/05 10:02:30;;;;;;;4.07;2.97;;;;;;;9.76;42.32;96962.94;5061560;28;20762;-69
2021/05/05 10:05:03;;;;;;;2.87;1.90;;;;;;;10.12;43.80;96956.84;5063642;28;20560;-68
2021/05/05 10:07:56;;;;;;;2.20;2.00;;;;;;;10.25;42.93;96941.13;5060608;28;20241;-70
2021/05/05 10:10:25;;;;;;;1.43;1.30;;;;;;;10.05;42.50;96954.16;5059494;28;20206;-68
2021/05/05 10:12:54;;;;;;;2.67;1.67;;;;;;;10.18;43.04;96950.00;5062011;28;20902;-69
2021/05/05 10:15:21;;;;;;;2.23;1.80;;;;;;;10.25;43.65;96962.31;5059047;28;20702;-70
2021/05/05 10:17:49;;;;;;;2.50;1.90;;;;;;;9.97;43.79;96993.94;5062659;28;20210;-69
2021/05/05 10:20:22;;;;;;;1.90;1.80;;;;;;;9.85;43.94;96967.16;5060717;28;20215;-68
2021/05/05 10:22:53;;;;;;;3.30;1.93;;;;;;;9.99;45.26;96960.16;5062890;28;20594;-68
2021/05/05 10:25:20;;;;;;;2.73;1.53;;;;;;;10.36;44.26;96954.88;5061496;28;20199;-69
2021/05/05 10:27:47;;;;;;;1.77;1.67;;;;;;;10.42;42.60;96978.81;5061185;28;20704;-69
2021/05/05 10:30:18;;;;;;;2.27;1.60;;;;;;;10.32;44.47;96975.59;5062490;28;20210;-68
2021/05/05 10:33:07;;;;;;;2.30;2.10;;;;;;;10.60;42.60;96972.25;5058707;28;20230;-69
2021/05/05 10:35:34;;;;;;;2.60;1.83;;;;;;;10.75;41.08;96977.50;5059994;28;20238;-69
2021/05/05 10:38:02;;;;;;;4.03;1.60;;;;;;;10.89;40.75;96973.13;5061809;28;20732;-69
2021/05/05 10:40:32;;;;;;;2.00;1.80;;;;;;;11.43;39.61;96973.50;5056976;28;20699;-69
2021/05/05 10:43:00;;;;;;;3.33;1.57;;;;;;;10.57;40.60;96989.34;5055840;28;20223;-69
2021/05/05 10:45:30;;;;;;;1.53;1.43;;;;;;;10.74;39.94;96972.38;5059559;28;20230;-69
2021/05/05 10:48:06;;;;;;;1.93;1.53;;;;;;;10.37;41.28;96965.25;5060251;28;20443;-69
2021/05/05 10:50:58;;;;;;;1.50;1.40;;;;;;;10.79;40.02;96972.63;5057241;28;20202;-70
2021/05/05 10:53:28;;;;;;;1.97;1.27;;;;;;;10.49;40.11;96989.47;5059202;28;20223;-69
2021/05/05 10:55:58;;;;;;;4.20;1.70;;;;;;;10.38;41.96;96985.44;5061039;28;20230;-69
2021/05/05 10:58:27;;;;;;;1.83;1.20;;;;;;;10.45;41.78;96995.34;5060419;28;20440;-70
2021/05/05 11:00:57;;;;;;;2.47;1.37;;;;;;;10.96;42.07;97015.56;5057707;28;20214;-69
2021/05/05 11:04:01;;;;;;;1.80;1.40;;;;;;;9.85;43.67;97047.34;5060920;28;20223;-69
2021/05/05 11:06:40;;;;;;;2.83;1.60;;;;;;;8.78;47.77;97040.38;5059136;28;20207;-68
2021/05/05 11:09:45;;;;;;;1.43;1.27;;;;;;;8.39;55.30;97034.16;5060525;28;20217;-69
2021/05/05 11:12:40;;;;;;;1.60;1.50;;;;;;;8.41;51.62;97050.66;5061502;28;20202;-70
2021/05/05 11:15:08;;;;;;;4.30;2.20;;;;;;;8.64;51.09;97044.59;5059815;28;20226;-70
2021/05/05 11:17:35;;;;;;;1.67;1.57;;;;;;;8.23;54.37;97058.81;5060652;28;20203;-69
2021/05/05 11:20:04;;;;;;;3.43;1.93;;;;;;;8.39;55.59;97060.56;5059962;28;20727;-70
2021/05/05 11:22:44;;;;;;;2.87;2.37;;;;;;;8.25;51.47;97084.03;5061072;28;20222;-70
2021/05/05 11:25:25;;;;;;;3.40;1.47;;;;;;;8.76;49.43;97050.28;5057873;28;20227;-69
2021/05/05 11:27:54;;;;;;;1.47;1.37;;;;;;;9.05;48.97;97056.69;5057962;28;20229;-69
2021/05/05 11:30:38;;;;;;;1.50;1.40;;;;;;;9.33;46.76;97043.72;5062165;28;20203;-70
2021/05/05 11:33:06;;;;;;;1.47;1.37;;;;;;;9.70;47.86;97065.03;5057701;28;20328;-69
2021/05/05 11:35:34;;;;;;;2.53;1.40;;;;;;;9.68;45.37;97059.91;5055777;28;20917;-69
2021/05/05 11:38:20;;;;;;;1.87;1.27;;;;;;;9.40;46.26;97057.88;5061897;28;20568;-69
2021/05/05 11:41:02;;;;;;;1.43;1.17;;;;;;;9.55;46.66;97060.53;5057525;28;20222;-69
2021/05/05 11:43:31;;;;;;;1.60;1.50;;;;;;;9.34;46.00;97049.84;5055339;28;20313;-70
2021/05/05 11:46:02;;;;;;;1.80;1.70;;;;;;;9.99;47.08;97039.56;5055107;28;20615;-69
2021/05/05 11:48:40;;;;;;;1.97;1.30;;;;;;;10.60;43.88;97046.44;5054997;28;20234;-70
2021/05/05 11:51:19;;;;;;;1.67;1.37;;;;;;;10.77;44.67;97057.63;5056127;28;20199;-69